createdAt,value
2023-12-07T00:02:23.177Z,12.48
2023-12-07T00:04:49.824Z,10.63
2023-12-07T00:07:16.266Z,11.75
2023-12-07T00:09:42.818Z,11.88
2023-12-07T00:12:09.531Z,12.30
2023-12-07T00:14:35.951Z,12.00
2023-12-07T00:17:02.337Z,10.48
2023-12-07T00:19:28.899Z,10.40
2023-12-07T00:21:55.352Z,9.82
2023-12-07T00:24:21.840Z,11.20
2023-12-07T00:26:48.278Z,11.68
2023-12-07T00:29:14.703Z,10.50
2023-12-07T00:31:41.097Z,11.75
2023-12-07T00:34:07.495Z,11.82
2023-12-07T00:36:34.810Z,12.05
2023-12-07T00:39:01.419Z,10.80
2023-12-07T00:41:27.813Z,12.02
2023-12-07T00:43:54.209Z,11.02
2023-12-07T00:46:20.722Z,11.48
2023-12-07T00:48:47.216Z,11.73
2023-12-07T00:51:13.687Z,10.88
2023-12-07T00:53:40.140Z,12.50
2023-12-07T00:56:07.126Z,11.32
2023-12-07T00:58:33.558Z,11.40
2023-12-07T01:01:00.092Z,10.75
2023-12-07T01:03:26.683Z,10.63
2023-12-07T01:05:53.215Z,10.32
2023-12-07T01:08:19.707Z,11.30
2023-12-07T01:10:46.141Z,10.73
2023-12-07T01:13:12.682Z,10.15
2023-12-07T01:15:39.184Z,10.25
2023-12-07T01:18:05.714Z,10.98
2023-12-07T01:20:32.281Z,11.63
2023-12-07T01:22:58.690Z,10.13
2023-12-07T01:25:25.377Z,11.25
2023-12-07T01:27:51.978Z,11.48
2023-12-07T01:30:18.535Z,11.55
2023-12-07T01:32:45.197Z,11.27
2023-12-07T01:35:11.899Z,10.95
2023-12-07T01:37:38.494Z,12.27
2023-12-07T01:40:10.725Z,13.05
2023-12-07T01:42:38.446Z,12.52
2023-12-07T01:45:06.680Z,13.20
2023-12-07T01:47:34.929Z,12.63
2023-12-07T01:50:01.946Z,12.45
2023-12-07T01:52:29.125Z,11.25
2023-12-07T01:54:55.906Z,11.98
2023-12-07T01:57:23.081Z,11.30
2023-12-07T01:59:50.206Z,11.35
2023-12-07T02:02:16.742Z,10.80
2023-12-07T02:04:43.359Z,11.10
2023-12-07T02:07:10.021Z,9.18
2023-12-07T02:09:36.550Z,9.73
2023-12-07T02:12:03.015Z,8.93
2023-12-07T02:14:29.473Z,9.20
2023-12-07T02:17:03.868Z,8.70
2023-12-07T02:19:36.371Z,8.45
2023-12-07T02:22:13.954Z,9.70
2023-12-07T02:25:09.114Z,9.63
2023-12-07T02:27:37.028Z,9.95
2023-12-07T02:30:03.797Z,9.00
2023-12-07T02:32:30.388Z,9.38
2023-12-07T02:34:57.010Z,9.95
2023-12-07T02:37:25.395Z,10.68
2023-12-07T02:39:52.499Z,12.25
2023-12-07T02:42:19.309Z,11.95
2023-12-07T02:44:46.217Z,11.15
2023-12-07T02:47:12.682Z,12.45
2023-12-07T02:49:39.149Z,12.07
2023-12-07T02:52:05.955Z,11.68
2023-12-07T02:54:32.348Z,11.68
2023-12-07T02:57:00.219Z,10.68
2023-12-07T02:59:26.592Z,10.40
2023-12-07T03:01:53.141Z,11.63
2023-12-07T03:04:19.663Z,10.50
2023-12-07T03:06:46.121Z,11.38
2023-12-07T03:09:12.545Z,10.13
2023-12-07T03:11:38.967Z,11.00
2023-12-07T03:14:05.367Z,9.98
2023-12-07T03:16:31.799Z,9.98
2023-12-07T03:18:58.316Z,10.55
2023-12-07T03:21:24.822Z,9.90
2023-12-07T03:23:51.325Z,10.07
2023-12-07T03:26:18.056Z,9.27
2023-12-07T03:28:44.481Z,8.93
2023-12-07T03:31:10.965Z,10.93
2023-12-07T03:33:37.521Z,11.20
2023-12-07T03:36:04.190Z,10.52
2023-12-07T03:38:30.683Z,10.68
2023-12-07T03:40:57.109Z,10.05
2023-12-07T03:43:23.664Z,9.90
2023-12-07T03:45:50.629Z,10.23
2023-12-07T03:48:17.209Z,10.25
2023-12-07T03:50:43.671Z,9.60
2023-12-07T03:53:10.703Z,10.32
2023-12-07T03:55:37.902Z,10.45
2023-12-07T03:58:04.368Z,10.93
2023-12-07T04:00:30.794Z,10.55
2023-12-07T04:02:57.217Z,12.40
2023-12-07T04:05:23.648Z,12.45
2023-12-07T04:07:50.080Z,12.65
2023-12-07T04:10:16.601Z,12.02
2023-12-07T04:12:43.029Z,11.80
2023-12-07T04:15:09.746Z,11.45
2023-12-07T04:17:36.403Z,12.15
2023-12-07T04:20:02.988Z,11.48
2023-12-07T04:22:30.083Z,10.65
2023-12-07T04:24:56.621Z,12.25
2023-12-07T04:27:23.044Z,11.95
2023-12-07T04:29:49.439Z,11.38
2023-12-07T04:32:16.121Z,11.40
2023-12-07T04:34:42.582Z,11.90
2023-12-07T04:37:09.064Z,11.30
2023-12-07T04:39:37.071Z,12.30
2023-12-07T04:42:03.596Z,12.10
2023-12-07T04:44:30.072Z,13.18
2023-12-07T04:46:56.645Z,12.20
2023-12-07T04:49:23.064Z,11.90
2023-12-07T04:51:49.696Z,11.40
2023-12-07T04:54:19.707Z,11.10
2023-12-07T04:56:46.775Z,11.10
2023-12-07T04:59:13.234Z,10.75
2023-12-07T05:01:40.149Z,11.57
2023-12-07T05:04:07.038Z,11.75
2023-12-07T05:06:33.721Z,12.40
2023-12-07T05:09:00.204Z,11.50
2023-12-07T05:11:27.591Z,12.75
2023-12-07T05:13:54.094Z,11.80
2023-12-07T05:16:20.528Z,11.05
2023-12-07T05:18:47.488Z,11.80
2023-12-07T05:21:14.065Z,11.07
2023-12-07T05:23:40.525Z,10.55
2023-12-07T05:26:09.040Z,11.13
2023-12-07T05:28:37.157Z,11.20
2023-12-07T05:31:03.709Z,11.55
2023-12-07T05:33:30.282Z,11.38
2023-12-07T05:35:56.798Z,11.25
2023-12-07T05:38:23.506Z,10.88
2023-12-07T05:40:50.032Z,11.82
2023-12-07T05:43:17.592Z,11.07
2023-12-07T05:45:45.319Z,11.57
2023-12-07T05:48:12.603Z,10.45
2023-12-07T05:50:40.462Z,10.38
2023-12-07T05:53:07.717Z,10.25
2023-12-07T05:55:34.334Z,10.70
2023-12-07T05:58:00.963Z,10.43
2023-12-07T06:00:27.592Z,9.77
2023-12-07T06:02:54.195Z,11.15
2023-12-07T06:05:20.733Z,11.65
2023-12-07T06:07:48.676Z,10.18
2023-12-07T06:10:24.349Z,10.80
2023-12-07T06:12:50.905Z,10.15
2023-12-07T06:15:17.363Z,10.48
2023-12-07T06:17:43.824Z,10.93
2023-12-07T06:20:10.881Z,10.00
2023-12-07T06:22:37.352Z,10.30
2023-12-07T06:25:04.110Z,11.02
2023-12-07T06:27:30.658Z,9.88
2023-12-07T06:29:57.074Z,11.20
2023-12-07T06:32:24.149Z,9.82
2023-12-07T06:34:50.720Z,10.75
2023-12-07T06:37:18.523Z,11.07
2023-12-07T06:39:45.017Z,10.93
2023-12-07T06:42:11.434Z,10.60
2023-12-07T06:44:37.915Z,11.05
2023-12-07T06:47:05.624Z,20.80
2023-12-07T06:49:42.507Z,23.05
2023-12-07T06:52:14.055Z,24.80
2023-12-07T06:54:40.691Z,18.75
2023-12-07T06:57:10.066Z,15.23
2023-12-07T06:59:36.970Z,11.57
2023-12-07T07:02:05.134Z,10.18
2023-12-07T07:04:31.726Z,8.95
2023-12-07T07:06:58.247Z,9.77
2023-12-07T07:09:25.120Z,10.27
2023-12-07T07:11:52.407Z,9.43
2023-12-07T07:14:19.402Z,11.07
2023-12-07T07:16:46.061Z,10.38
2023-12-07T07:19:12.909Z,10.32
2023-12-07T07:21:39.507Z,11.02
2023-12-07T07:24:07.183Z,13.63
2023-12-07T07:26:34.922Z,13.98
2023-12-07T07:29:01.818Z,16.73
2023-12-07T07:31:28.544Z,15.70
2023-12-07T07:34:00.645Z,15.73
2023-12-07T07:36:28.281Z,15.18
2023-12-07T07:38:55.523Z,14.20
2023-12-07T07:41:22.091Z,12.45
2023-12-07T07:43:48.571Z,11.80
2023-12-07T07:46:15.614Z,12.27
2023-12-07T07:48:42.229Z,11.45
2023-12-07T07:51:08.809Z,10.00
2023-12-07T07:53:35.377Z,10.40
2023-12-07T07:56:01.964Z,10.02
2023-12-07T07:58:28.889Z,10.93
2023-12-07T08:00:55.463Z,9.32
2023-12-07T08:03:23.027Z,9.90
2023-12-07T08:05:52.221Z,9.85
2023-12-07T08:11:17.859Z,8.82
2023-12-07T08:14:01.417Z,9.48
2023-12-07T08:16:31.083Z,9.40
2023-12-07T08:18:59.060Z,9.05
2023-12-07T08:21:29.903Z,9.43
2023-12-07T08:24:04.337Z,9.70
2023-12-07T08:26:31.089Z,9.47
2023-12-07T08:28:57.654Z,8.88
2023-12-07T08:31:25.535Z,7.90
2023-12-07T08:33:53.988Z,9.48
2023-12-07T08:36:21.093Z,8.70
2023-12-07T08:38:47.621Z,8.93
2023-12-07T08:41:15.093Z,8.85
2023-12-07T08:43:42.291Z,9.27
2023-12-07T08:46:09.173Z,9.63
2023-12-07T08:48:42.341Z,8.98
2023-12-07T08:51:09.804Z,11.48
2023-12-07T08:53:39.230Z,11.30
2023-12-07T08:56:06.797Z,11.70
2023-12-07T08:58:33.654Z,12.77
2023-12-07T09:01:02.865Z,13.00
2023-12-07T09:03:33.561Z,13.25
2023-12-07T09:06:02.016Z,15.18
2023-12-07T09:08:29.507Z,19.23
2023-12-07T09:10:56.210Z,17.13
2023-12-07T09:13:23.258Z,16.35
2023-12-07T09:15:49.886Z,14.65
2023-12-07T09:18:16.476Z,13.30
2023-12-07T09:20:52.057Z,13.38
2023-12-07T09:23:18.534Z,14.38
2023-12-07T09:25:45.049Z,13.98
2023-12-07T09:28:12.554Z,15.43
2023-12-07T09:30:39.162Z,23.42
2023-12-07T09:33:10.175Z,20.80
2023-12-07T09:35:40.202Z,18.17
2023-12-07T09:38:08.503Z,16.63
2023-12-07T09:40:35.434Z,16.52
2023-12-07T09:43:07.965Z,13.80
2023-12-07T09:45:35.348Z,15.73
2023-12-07T09:48:06.429Z,15.35
2023-12-07T09:50:32.966Z,16.80
2023-12-07T09:53:07.242Z,16.00
2023-12-07T09:55:36.293Z,15.13
2023-12-07T09:58:07.830Z,16.13
2023-12-07T10:00:36.232Z,16.00
2023-12-07T10:03:02.961Z,17.42
2023-12-07T10:05:29.737Z,17.58
2023-12-07T10:07:56.189Z,17.23
2023-12-07T10:10:22.738Z,15.82
2023-12-07T10:12:52.561Z,16.75
2023-12-07T10:15:20.729Z,16.75
2023-12-07T10:17:58.050Z,16.38
2023-12-07T10:20:26.431Z,15.27
2023-12-07T10:23:09.307Z,15.85
2023-12-07T10:25:40.543Z,16.33
2023-12-07T10:28:09.183Z,14.45
2023-12-07T10:30:40.549Z,15.55
2023-12-07T10:33:11.129Z,14.93
2023-12-07T10:35:41.561Z,15.40
2023-12-07T10:38:08.778Z,15.27
2023-12-07T10:40:35.315Z,15.65
2023-12-07T10:43:06.158Z,16.65
2023-12-07T10:45:33.110Z,15.90
2023-12-07T10:48:10.132Z,16.85
2023-12-07T10:50:42.931Z,17.95
2023-12-07T10:53:29.082Z,17.80
2023-12-07T10:56:01.524Z,18.27
2023-12-07T10:58:29.197Z,17.77
2023-12-07T11:00:56.740Z,18.65
2023-12-07T11:03:24.175Z,22.30
2023-12-07T11:05:51.276Z,24.55
2023-12-07T11:08:36.408Z,26.00
2023-12-07T11:11:07.327Z,26.23
2023-12-07T11:13:37.098Z,26.95
2023-12-07T11:16:04.492Z,24.08
2023-12-07T11:18:34.212Z,23.98
2023-12-07T11:21:01.052Z,24.30
2023-12-07T11:23:30.024Z,24.15
2023-12-07T11:25:56.791Z,23.83
2023-12-07T11:28:42.527Z,22.58
2023-12-07T11:31:09.525Z,23.08
2023-12-07T11:33:38.903Z,23.60
2023-12-07T11:36:07.410Z,23.60
2023-12-07T11:38:34.110Z,23.58
2023-12-07T11:41:00.803Z,25.48
2023-12-07T11:43:33.303Z,27.15
2023-12-07T11:46:00.219Z,26.42
2023-12-07T11:48:26.921Z,26.83
2023-12-07T11:51:06.183Z,36.63
2023-12-07T11:53:34.226Z,30.80
2023-12-07T11:56:02.463Z,30.80
2023-12-07T11:58:30.311Z,31.45
2023-12-07T12:00:57.812Z,34.40
2023-12-07T12:03:28.767Z,33.30
2023-12-07T12:05:56.069Z,33.28
2023-12-07T12:08:22.962Z,33.63
2023-12-07T12:10:52.614Z,33.38
2023-12-07T12:13:19.816Z,33.38
2023-12-07T12:15:49.486Z,32.92
2023-12-07T12:18:17.564Z,33.13
2023-12-07T12:20:46.100Z,30.30
2023-12-07T12:23:12.582Z,30.75
2023-12-07T12:25:41.165Z,30.08
2023-12-07T12:28:08.517Z,30.08
2023-12-07T12:30:35.608Z,30.98
2023-12-07T12:33:03.631Z,32.00
2023-12-07T12:35:30.306Z,31.70
2023-12-07T12:37:56.836Z,32.55
2023-12-07T12:40:24.229Z,31.50
2023-12-07T12:42:55.038Z,29.15
2023-12-07T12:45:23.474Z,30.13
2023-12-07T12:47:49.926Z,28.38
2023-12-07T12:50:34.778Z,27.53
2023-12-07T12:53:03.086Z,26.73
2023-12-07T12:55:32.473Z,28.02
2023-12-07T12:57:59.505Z,29.35
2023-12-07T13:00:26.275Z,28.23
2023-12-07T13:02:52.697Z,30.02
2023-12-07T13:05:19.133Z,31.20
2023-12-07T13:07:46.373Z,34.47
2023-12-07T13:10:12.903Z,28.85
2023-12-07T13:12:39.324Z,32.03
2023-12-07T13:15:06.191Z,31.10
2023-12-07T13:17:33.367Z,29.85
2023-12-07T13:19:59.810Z,28.85
2023-12-07T13:22:26.372Z,28.83
2023-12-07T13:24:53.637Z,28.35
2023-12-07T13:27:20.069Z,29.52
2023-12-07T13:29:46.466Z,28.85
2023-12-07T13:32:13.012Z,30.08
2023-12-07T13:34:40.129Z,31.38
2023-12-07T13:37:07.382Z,31.42
2023-12-07T13:39:34.032Z,30.80
2023-12-07T13:42:03.721Z,32.17
2023-12-07T13:44:33.629Z,31.35
2023-12-07T13:47:01.039Z,32.72
2023-12-07T13:49:32.881Z,33.92
2023-12-07T13:52:07.564Z,33.22
2023-12-07T13:54:47.081Z,35.33
2023-12-07T13:57:21.412Z,34.45
2023-12-07T13:59:47.876Z,33.67
2023-12-07T14:02:14.369Z,36.50
2023-12-07T14:04:41.037Z,35.10
2023-12-07T14:07:15.370Z,35.90
2023-12-07T14:09:50.620Z,32.78
2023-12-07T14:12:24.270Z,31.50
2023-12-07T14:14:50.877Z,33.63
2023-12-07T14:17:19.839Z,32.13
2023-12-07T14:19:48.579Z,20.25
2023-12-07T14:22:15.357Z,27.77
2023-12-07T14:24:41.821Z,38.30
2023-12-07T14:27:09.418Z,37.72
2023-12-07T14:29:35.898Z,35.50
2023-12-07T14:32:04.566Z,30.95
2023-12-07T14:34:35.102Z,30.67
2023-12-07T14:37:04.251Z,28.55
2023-12-07T14:39:30.882Z,29.27
2023-12-07T14:41:57.786Z,27.73
2023-12-07T14:44:29.300Z,37.92
2023-12-07T14:46:56.599Z,32.70
2023-12-07T14:49:23.104Z,29.73
2023-12-07T14:51:49.549Z,29.85
2023-12-07T14:54:22.708Z,39.42
2023-12-07T14:56:53.062Z,31.85
2023-12-07T14:59:20.890Z,31.38
2023-12-07T15:01:47.854Z,29.00
2023-12-07T15:04:24.379Z,27.80
2023-12-07T15:06:56.221Z,31.55
2023-12-07T15:09:22.708Z,29.20
2023-12-07T15:11:49.395Z,29.00
2023-12-07T15:14:29.233Z,27.95
2023-12-07T15:17:00.513Z,28.85
2023-12-07T15:19:27.100Z,27.17
2023-12-07T15:21:53.578Z,30.45
2023-12-07T15:24:31.139Z,28.10
2023-12-07T15:27:01.879Z,28.42
2023-12-07T15:29:28.318Z,30.75
2023-12-07T15:31:54.863Z,29.35
2023-12-07T15:34:29.057Z,30.58
2023-12-07T15:37:04.230Z,31.45
2023-12-07T15:39:31.371Z,32.67
2023-12-07T15:41:58.665Z,33.25
2023-12-07T15:44:29.360Z,32.00
2023-12-07T15:46:57.138Z,31.55
2023-12-07T15:49:23.781Z,32.50
2023-12-07T15:51:50.440Z,32.63
2023-12-07T15:54:22.717Z,34.50
2023-12-07T15:56:57.264Z,32.28
2023-12-07T15:59:23.709Z,32.67
2023-12-07T16:01:52.883Z,31.60
2023-12-07T16:04:28.664Z,30.95
2023-12-07T16:06:59.599Z,29.88
2023-12-07T16:09:26.072Z,30.42
2023-12-07T16:11:52.585Z,29.13
2023-12-07T16:14:26.733Z,26.95
2023-12-07T16:16:56.780Z,27.10
2023-12-07T16:19:23.484Z,23.85
2023-12-07T16:21:50.004Z,20.45
2023-12-07T16:24:16.416Z,19.70
2023-12-07T16:26:42.984Z,18.45
2023-12-07T16:29:09.455Z,18.30
2023-12-07T16:31:37.111Z,18.55
2023-12-07T16:34:05.101Z,15.30
2023-12-07T16:36:31.996Z,15.70
2023-12-07T16:39:02.011Z,15.18
2023-12-07T16:41:32.883Z,15.88
2023-12-07T16:44:00.528Z,15.00
2023-12-07T16:46:27.220Z,16.00
2023-12-07T16:48:54.175Z,15.32
2023-12-07T16:51:21.147Z,15.63
2023-12-07T16:53:47.740Z,15.95
2023-12-07T16:56:14.303Z,14.40
2023-12-07T16:58:40.786Z,14.00
2023-12-07T17:01:07.345Z,15.02
2023-12-07T17:03:34.060Z,14.80
2023-12-07T17:06:00.627Z,13.73
2023-12-07T17:08:27.573Z,14.65
2023-12-07T17:10:54.478Z,14.50
2023-12-07T17:13:20.918Z,15.60
2023-12-07T17:15:47.297Z,14.75
2023-12-07T17:18:13.977Z,15.80
2023-12-07T17:20:40.758Z,14.88
2023-12-07T17:23:07.352Z,14.38
2023-12-07T17:25:34.233Z,14.20
2023-12-07T17:28:01.467Z,13.57
2023-12-07T17:30:27.962Z,14.27
2023-12-07T17:32:54.632Z,13.63
2023-12-07T17:35:21.147Z,13.93
2023-12-07T17:37:47.652Z,14.30
2023-12-07T17:40:14.160Z,14.00
2023-12-07T17:42:40.640Z,14.75
2023-12-07T17:45:10.359Z,14.15
2023-12-07T17:47:38.064Z,14.07
2023-12-07T17:50:05.089Z,15.73
2023-12-07T17:52:31.509Z,14.73
2023-12-07T17:54:57.923Z,15.50
2023-12-07T17:57:24.611Z,14.60
2023-12-07T17:59:51.157Z,15.38
2023-12-07T18:02:18.041Z,16.05
2023-12-07T18:04:44.597Z,15.57
2023-12-07T18:07:11.116Z,16.02
2023-12-07T18:09:37.689Z,15.63
2023-12-07T18:12:08.174Z,15.23
2023-12-07T18:14:35.382Z,15.70
2023-12-07T18:17:02.452Z,15.80
2023-12-07T18:19:29.267Z,15.32
2023-12-07T18:21:55.952Z,14.95
2023-12-07T18:24:22.363Z,14.10
2023-12-07T18:26:48.896Z,14.40
2023-12-07T18:29:15.404Z,15.02
2023-12-07T18:31:41.994Z,14.50
2023-12-07T18:34:08.492Z,13.90
2023-12-07T18:36:34.967Z,15.40
2023-12-07T18:39:01.526Z,15.05
2023-12-07T18:41:28.024Z,15.23
2023-12-07T18:43:54.506Z,15.40
2023-12-07T18:46:20.948Z,16.13
2023-12-07T18:48:47.508Z,16.52
2023-12-07T18:51:14.011Z,15.57
2023-12-07T18:53:40.437Z,15.57
2023-12-07T18:56:08.670Z,17.02
2023-12-07T18:58:35.054Z,16.70
2023-12-07T19:01:01.668Z,16.35
2023-12-07T19:03:28.172Z,17.73
2023-12-07T19:05:54.831Z,18.10
2023-12-07T19:08:21.382Z,17.05
2023-12-07T19:10:47.936Z,16.83
2023-12-07T19:13:14.425Z,18.50
2023-12-07T19:15:40.922Z,17.33
2023-12-07T19:18:07.904Z,17.67
2023-12-07T19:20:34.467Z,17.95
2023-12-07T19:25:41.842Z,18.48
2023-12-07T19:28:08.330Z,18.08
2023-12-07T19:30:34.724Z,23.23
2023-12-07T19:33:03.585Z,27.38
2023-12-07T19:35:30.667Z,26.80
2023-12-07T19:37:57.105Z,20.73
2023-12-07T19:40:23.497Z,18.95
2023-12-07T19:42:49.899Z,19.00
2023-12-07T19:45:16.638Z,18.80
2023-12-07T19:47:43.277Z,20.92
2023-12-07T19:50:10.988Z,18.83
2023-12-07T19:52:37.752Z,19.48
2023-12-07T19:55:07.499Z,18.83
2023-12-07T19:57:34.516Z,19.08
2023-12-07T20:00:01.129Z,18.85
2023-12-07T20:02:27.690Z,19.55
2023-12-07T20:04:54.163Z,18.80
2023-12-07T20:07:20.632Z,19.70
2023-12-07T20:09:47.755Z,18.63
2023-12-07T20:12:14.739Z,20.02
2023-12-07T20:14:41.282Z,19.95
2023-12-07T20:17:08.438Z,19.23
2023-12-07T20:19:35.477Z,20.52
2023-12-07T20:22:03.667Z,20.35
2023-12-07T20:24:30.089Z,21.67
2023-12-07T20:26:56.630Z,19.55
2023-12-07T20:29:27.075Z,21.02
2023-12-07T20:31:53.630Z,20.38
2023-12-07T20:34:20.100Z,20.75
2023-12-07T20:36:46.604Z,21.00
2023-12-07T20:39:13.172Z,20.73
2023-12-07T20:41:39.640Z,21.75
2023-12-07T20:44:07.785Z,20.98
2023-12-07T20:46:34.329Z,22.35
2023-12-07T20:49:00.926Z,21.98
2023-12-07T20:51:27.509Z,22.30
2023-12-07T20:53:54.097Z,22.70
2023-12-07T20:56:22.244Z,20.83
2023-12-07T20:58:49.671Z,20.27
2023-12-07T21:01:16.180Z,21.52
2023-12-07T21:03:42.872Z,21.38
2023-12-07T21:06:24.828Z,20.77
2023-12-07T21:08:53.133Z,23.30
2023-12-07T21:11:19.584Z,22.17
2023-12-07T21:13:46.184Z,22.05
2023-12-07T21:16:12.692Z,21.27
2023-12-07T21:18:39.231Z,22.08
2023-12-07T21:21:05.901Z,21.23
2023-12-07T21:23:32.458Z,21.15
2023-12-07T21:26:01.058Z,22.35
2023-12-07T21:28:27.472Z,21.77
2023-12-07T21:30:53.945Z,21.20
2023-12-07T21:33:20.498Z,20.65
2023-12-07T21:35:47.131Z,22.20
2023-12-07T21:38:13.558Z,21.77
2023-12-07T21:40:39.997Z,21.02
2023-12-07T21:43:06.493Z,20.95
2023-12-07T21:45:34.975Z,20.85
2023-12-07T21:48:02.410Z,20.67
2023-12-07T21:50:28.993Z,20.55
2023-12-07T21:52:55.394Z,22.92
2023-12-07T21:55:21.869Z,20.58
2023-12-07T21:57:48.294Z,22.33
2023-12-07T22:00:17.094Z,21.80
2023-12-07T22:02:43.522Z,21.52
2023-12-07T22:05:10.193Z,20.77
2023-12-07T22:07:36.710Z,20.17
2023-12-07T22:10:13.699Z,20.42
2023-12-07T22:12:44.941Z,20.58
2023-12-07T22:15:12.597Z,20.75
2023-12-07T22:17:40.036Z,21.58
2023-12-07T22:20:09.689Z,19.92
2023-12-07T22:22:36.614Z,21.52
2023-12-07T22:25:06.047Z,20.80
2023-12-07T22:27:32.922Z,20.33
2023-12-07T22:29:59.534Z,20.88
2023-12-07T22:32:26.062Z,19.55
2023-12-07T22:34:53.020Z,20.48
2023-12-07T22:37:19.511Z,20.58
2023-12-07T22:39:45.924Z,20.15
2023-12-07T22:42:12.370Z,20.38
2023-12-07T22:44:38.823Z,19.40
2023-12-07T22:47:05.318Z,20.60
2023-12-07T22:49:34.865Z,20.35
2023-12-07T22:52:01.432Z,19.95
2023-12-07T22:54:27.860Z,21.67
2023-12-07T22:56:54.546Z,20.08
2023-12-07T22:59:21.135Z,19.95
2023-12-07T23:01:47.770Z,21.13
2023-12-07T23:04:14.213Z,21.45
2023-12-07T23:06:40.672Z,21.08
2023-12-07T23:09:07.160Z,21.48
2023-12-07T23:11:33.663Z,21.17
2023-12-07T23:14:00.201Z,19.83
2023-12-07T23:16:28.166Z,19.73
2023-12-07T23:18:54.820Z,19.67
2023-12-07T23:21:21.428Z,20.45
2023-12-07T23:23:49.557Z,20.73
2023-12-07T23:26:16.465Z,19.80
2023-12-07T23:28:43.078Z,20.70
2023-12-07T23:31:09.489Z,19.67
2023-12-07T23:33:36.440Z,19.95
2023-12-07T23:36:03.969Z,19.92
2023-12-07T23:38:30.540Z,19.65
2023-12-07T23:40:56.987Z,19.55
2023-12-07T23:43:23.401Z,20.30
2023-12-07T23:45:49.906Z,20.02
2023-12-07T23:48:16.567Z,21.25
2023-12-07T23:50:43.118Z,20.23
2023-12-07T23:53:09.530Z,19.40
2023-12-07T23:55:35.961Z,20.65
2023-12-07T23:58:02.574Z,20.10
